Airfield :
LOGIN :

Register | Disclaimer

   EN    FR    IT 

 










Legend :    VFR   Marginal VFR   IFR   Intensive IFR   Very Intensive IFR
Visi :
Ceiling :
>= 8 km
>= 3000ft
5 to 8 km
1000 to 3000 ft
1500m to 5 km
500 to 1000 ft
800 to 1500m
200 to 500 ft
< 800m
< 200 ft
Symbols :   Thunderstorms  Fog  Heavy snow  Heavy precipitations  Wind > 20 kt
SIGMETs :     Misc.  Thunderstorms  Icing  Turbulence  Mountain Waves  Volcanic Ashes






- Airport Elevation : 162 ft
- IATA code : BOD


LFBD - Bordeaux / Merignac

CURRENT METAR :
  • 271230Z AUTO 27021G32KT 9999 2100 -RA BKN012 OVC021 13/12 Q1011 BECMG 30012KT BKN018

EXPIRED METARs :
  • 271200Z AUTO 27021G35KT 9999 4000 OVC008 13/12 Q1011 BECMG 30012KT 2500 -RADZ BKN018
  • 271130Z AUTO 27020KT 230V290 3900 -RA BR OVC007 13/12 Q1011
  • 271100Z AUTO 26021KT 3000 -RA BR OVC007 13/12 Q1010 TEMPO 25020G35KT RA
  • 271030Z AUTO 27022KT 2900 -RA BR OVC008 12/12 Q1010 TEMPO 25020G35KT RA
  • 271000Z AUTO 26021G32KT 2500 -RA BR OVC008/// ///TCU 12/11 Q1010 TEMPO RA BKN007

TAF AMD TAF LFBD
Valid from the 27 at 12:00 until the 28 at 18:00 UTC


271205Z 2712/2818 28020G30KT 2500 -RADZ BKN006 TX15/2715Z TN06/2800Z
BECMG 2712/2715 30012KT 9999 NSW BKN018
BECMG 2722/2724 14005KT
PROB30
TEMPO 2801/2804 0500 FG
FM280400 14005KT 6000 BKN012
TEMPO 2804/2810 2000 -DZ OVC005
BECMG 2810/2812 9999 BKN016
BECMG 2814/2816 CAVOK
ATIS : +33 5 57 92 81 04



MET'MAP, your aeronautical weather chart ! - Copyright ORBIFLY December 2007 - Disclaimer

ORBIFLY MET'MAP TEAM :

Programming & Development : Alexandra Zaïnal
Concept & original design : Baudouin d'Aumeries
Assistance for programming : Marc-Olivier Méhu
Technical & hardware support : Manuel Goepfert

Contact : metmap@orbifly.com




SOURCES & CREDITS :

   NOAA